If you wish to contribute or participate in the discussions about articles you are invited to join SKYbrary as a registered user

 Actions

Bissau/Osvaldo Vieira International Airport

From SKYbrary Wiki

GGOV
Airport
ICAO: GGOV – IATA: OXB
Summary
Name Bissau/Osvaldo Vieira International Airport
Region Africa
Territory Guinea-Bissau GW.gif
Location Bissau
Serving Bissau
Elevation 39.319 m
129 ft
129 ft39.319 m
Coordinates 11° 53' 42.00" N, 15° 39' 13.00" W
Runways
Designator Length Width Surface ROPS
3/21 3200 m10,498.688 ft
45 m147.638 ft
ASP /


METAR
Observation GGOV 252300Z 32008KT CAVOK 23/19 Q1011 NOSIG
Station Bissau Aeroport
Date/Time 25 April 2019 23:00:00
Wind direction 320°
Wind speed 08 kts
Lowest cloud amount clouds and visibility OK
Temperature 23°C
Dew point 19°C
Humidity 78%
QNH 1011 hPa
Weather condition n/a

Description

Osvaldo Vieira International Airport is an airport that serves the city of Bissau, the capital city of Guinea-Bissau. It is the only international airport in the country.